VAM | Vabird-VBD

Virtual Vabird! Aerolínea Virtual de habla hispana, desde 2011




 INFORMACIÓN METAR y TAF
METAR FOR GCLP
ADDS - METARS form results

(2120 UTC 21 January 2021)
Data provider http://aviationweather.gov/metar/data/
 
METAR text: GCLP 212100Z 01014KT 9999 FEW016 SCT021 19/15 Q1026 NOSIG
Conditions at: GCLP (LAS PALMAS/GANDO, ES) observed 2100 UTC 21 January 2021
Temperature: 19.0°C (66°F)
Dewpoint: 15.0°C (59°F) [RH = 78%]
Pressure (altimeter): 30.30 inches Hg (1026.0 mb)
Winds: from the N (10 degrees) at 16 MPH (14 knots; 7.2 m/s)
Visibility: 6 or more miles (10+ km)
Ceiling: at least 12,000 feet AGL
Clouds: few clouds at 1600 feet AGL
scattered clouds at 2100 feet AGL
Weather: no significant weather observed at this time

METAR text: GCLP 212030Z 02012KT 9999 FEW020 19/15 Q1025 NOSIG
Conditions at: GCLP (LAS PALMAS/GANDO, ES) observed 2030 UTC 21 January 2021
Temperature: 19.0°C (66°F)
Dewpoint: 15.0°C (59°F) [RH = 78%]
Pressure (altimeter): 30.27 inches Hg (1025.0 mb)
Winds: from the NNE (20 degrees) at 14 MPH (12 knots; 6.2 m/s)
Visibility: 6 or more miles (10+ km)
Ceiling: at least 12,000 feet AGL
Clouds: few clouds at 2000 feet AGL
Weather: no significant weather observed at this time

Forecast for: GCLP (LAS PALMAS/GANDO, ES)
Text: TAF GCLP 212000Z 2121/2221 35012KT 9999 FEW030 TX22/2214Z TN17/2207Z
Forecast period: 2100 UTC 21 January 2021 to 2100 UTC 22 January 2021
Forecast type: FROM: standard forecast or significant change
Winds: from the N (350 degrees) at 14 MPH (12 knots; 6.2 m/s)
Visibility: 6 or more miles (10+ km)
Ceiling: at least 12,000 feet AGL
Clouds: few clouds at 3000 feet AGL
Weather: no significant weather forecast for this period

 MAPA DE AEROPUERTO

 INFORMACIÓN DE PISTA